createdAt,value
2023-03-10T00:16:05.538Z,27.50
2023-03-10T00:18:49.647Z,28.20
2023-03-10T00:21:21.342Z,22.48
2023-03-10T00:23:49.046Z,22.75
2023-03-10T00:26:19.257Z,27.98
2023-03-10T00:28:47.233Z,25.40
2023-03-10T00:31:18.942Z,22.40
2023-03-10T00:33:57.208Z,23.90
2023-03-10T00:36:29.758Z,25.77
2023-03-10T00:39:05.016Z,24.30
2023-03-10T00:41:33.835Z,30.30
2023-03-10T00:44:01.250Z,21.00
2023-03-10T00:46:30.170Z,28.50
2023-03-10T00:48:57.686Z,26.83
2023-03-10T00:51:25.056Z,28.45
2023-03-10T00:53:52.605Z,27.27
2023-03-10T00:56:26.244Z,23.88
2023-03-10T00:59:09.553Z,21.52
2023-03-10T01:01:42.816Z,27.88
2023-03-10T01:04:18.631Z,30.60
2023-03-10T01:06:47.887Z,29.50
2023-03-10T01:09:18.420Z,26.48
2023-03-10T01:11:45.926Z,25.08
2023-03-10T01:14:14.566Z,26.67
2023-03-10T01:16:46.324Z,24.67
2023-03-10T01:19:14.372Z,25.98
2023-03-10T01:21:42.521Z,24.88
2023-03-10T01:24:16.296Z,26.02
2023-03-10T01:26:44.155Z,24.38
2023-03-10T01:29:31.587Z,23.83
2023-03-10T01:32:03.993Z,24.90
2023-03-10T01:34:31.686Z,21.42
2023-03-10T01:37:02.136Z,25.35
2023-03-10T01:39:29.730Z,26.67
2023-03-10T01:42:02.278Z,24.98
2023-03-10T01:44:32.743Z,27.70
2023-03-10T01:47:07.580Z,32.95
2023-03-10T01:49:43.100Z,28.45
2023-03-10T01:52:19.283Z,23.92
2023-03-10T01:55:10.167Z,22.63
2023-03-10T01:57:44.465Z,22.70
2023-03-10T02:03:38.839Z,26.73
2023-03-10T02:09:37.355Z,21.35
2023-03-10T02:12:23.032Z,27.38
2023-03-10T02:15:09.353Z,26.23
2023-03-10T02:21:05.338Z,27.13
2023-03-10T02:28:05.934Z,25.80
2023-03-10T02:30:18.109Z,31.17
2023-03-10T02:33:10.307Z,25.92
2023-03-10T02:35:49.442Z,25.45
2023-03-10T02:38:19.040Z,34.42
2023-03-10T02:41:12.786Z,33.40
2023-03-10T02:43:57.413Z,29.40
2023-03-10T02:46:26.374Z,29.85
2023-03-10T02:49:04.434Z,28.55
2023-03-10T02:51:33.149Z,27.85
2023-03-10T02:54:04.335Z,28.20
2023-03-10T02:56:42.786Z,31.98
2023-03-10T02:59:11.009Z,37.08
2023-03-10T03:01:38.878Z,34.03
2023-03-10T03:04:26.102Z,27.20
2023-03-10T03:40:46.678Z,43.40
2023-03-10T03:43:13.734Z,29.17
2023-03-10T03:45:43.474Z,39.67
2023-03-10T03:48:15.343Z,33.08
2023-03-10T03:50:43.708Z,39.97
2023-03-10T03:53:13.493Z,37.60
2023-03-10T03:55:45.503Z,36.72
2023-03-10T03:58:12.996Z,38.60
2023-03-10T04:00:43.525Z,44.97
2023-03-10T04:03:11.145Z,40.80
2023-03-10T04:05:38.837Z,46.80
2023-03-10T04:08:06.334Z,38.53
2023-03-10T04:10:33.734Z,37.70
2023-03-10T04:13:01.017Z,42.70
2023-03-10T04:15:28.501Z,33.55
2023-03-10T04:17:57.943Z,26.02
2023-03-10T04:20:25.812Z,29.50
2023-03-10T04:22:54.626Z,31.95
2023-03-10T04:25:21.921Z,30.13
2023-03-10T04:27:49.310Z,29.67
2023-03-10T04:30:17.051Z,26.95
2023-03-10T04:32:45.202Z,27.08
2023-03-10T04:35:17.293Z,31.80
2023-03-10T04:37:45.082Z,24.55
2023-03-10T04:40:15.489Z,29.73
2023-03-10T04:42:43.221Z,24.08
2023-03-10T04:45:13.193Z,31.60
2023-03-10T04:47:44.035Z,27.83
2023-03-10T04:50:11.661Z,32.60
2023-03-10T04:52:40.100Z,31.15
2023-03-10T04:55:07.982Z,26.98
2023-03-10T04:57:35.384Z,31.02
2023-03-10T05:00:03.482Z,28.00
2023-03-10T05:02:32.793Z,25.30
2023-03-10T05:05:01.534Z,22.70
2023-03-10T05:07:32.449Z,26.10
2023-03-10T05:09:59.808Z,24.42
2023-03-10T05:12:27.257Z,27.30
2023-03-10T05:15:10.178Z,28.33
2023-03-10T05:22:24.531Z,21.42
2023-03-10T05:25:04.138Z,22.63
2023-03-10T05:31:01.093Z,23.05
2023-03-10T08:42:21.443Z,7.38
2023-03-10T08:47:53.367Z,7.68
2023-03-10T08:53:14.551Z,7.25
2023-03-10T08:59:40.917Z,9.05
2023-03-10T09:02:21.606Z,7.70
2023-03-10T09:04:56.101Z,6.80
2023-03-10T09:07:23.671Z,6.95
2023-03-10T09:33:08.885Z,7.63
2023-03-10T09:43:15.172Z,6.13
2023-03-10T09:45:53.857Z,8.93
2023-03-10T09:55:05.221Z,7.82
2023-03-10T09:58:11.426Z,8.57
2023-03-10T10:04:16.961Z,7.07
2023-03-10T10:07:34.723Z,11.10
2023-03-10T10:13:36.986Z,15.05
2023-03-10T10:20:15.295Z,8.82
2023-03-10T10:36:43.048Z,6.20
2023-03-10T11:37:57.269Z,6.00
2023-03-10T11:41:10.581Z,4.32
2023-03-10T11:43:45.312Z,8.07
2023-03-10T11:49:30.711Z,5.28
2023-03-10T11:52:00.812Z,4.07
2023-03-10T11:54:39.562Z,4.80
2023-03-10T11:57:26.665Z,4.40
2023-03-10T12:00:36.456Z,4.57
2023-03-10T12:03:07.282Z,5.82
2023-03-10T12:06:13.996Z,5.85
2023-03-10T12:16:03.818Z,4.28
2023-03-10T12:18:37.740Z,5.78
2023-03-10T12:22:05.746Z,4.65
2023-03-10T12:25:14.915Z,6.57
2023-03-10T12:28:01.552Z,5.65
2023-03-10T12:30:44.300Z,5.22
2023-03-10T12:33:32.063Z,7.20
2023-03-10T12:36:07.754Z,6.88
2023-03-10T12:38:38.372Z,4.72
2023-03-10T12:41:09.313Z,5.78
2023-03-10T12:43:57.812Z,5.13
2023-03-10T12:47:00.897Z,5.90
2023-03-10T12:49:37.690Z,5.45
2023-03-10T12:52:08.469Z,5.57
2023-03-10T12:54:40.971Z,4.15
2023-03-10T12:57:26.854Z,7.05
2023-03-10T13:00:00.026Z,6.50
2023-03-10T13:12:30.286Z,7.53
2023-03-10T13:15:25.027Z,6.47
2023-03-10T13:18:14.049Z,5.95
2023-03-10T13:20:44.170Z,4.75
2023-03-10T13:23:21.318Z,4.32
2023-03-10T13:32:19.707Z,3.13
2023-03-10T13:34:54.141Z,3.35
2023-03-10T13:40:31.379Z,3.40
2023-03-10T13:43:22.115Z,3.03
2023-03-10T13:46:32.071Z,4.78
2023-03-10T13:50:03.395Z,3.35
2023-03-10T13:52:42.950Z,3.72
2023-03-10T13:55:56.176Z,2.97
2023-03-10T14:30:45.450Z,5.18
2023-03-10T14:33:28.835Z,5.75
2023-03-10T14:39:25.145Z,5.10
2023-03-10T14:41:53.240Z,3.80
2023-03-10T14:44:28.127Z,4.22
2023-03-10T14:47:11.830Z,3.83
2023-03-10T14:49:53.932Z,5.55
2023-03-10T14:52:24.353Z,4.45
2023-03-10T14:55:07.620Z,4.13
2023-03-10T14:57:42.019Z,7.95
2023-03-10T15:00:17.318Z,4.78
2023-03-10T15:02:44.720Z,6.82
2023-03-10T15:05:17.094Z,5.47
2023-03-10T15:07:44.843Z,5.28
2023-03-10T15:10:15.835Z,6.13
2023-03-10T15:12:48.827Z,6.68
2023-03-10T15:15:19.692Z,5.88
2023-03-10T15:17:47.339Z,21.33
2023-03-10T15:20:21.229Z,8.70
2023-03-10T15:22:49.476Z,11.85
2023-03-10T15:25:41.494Z,11.27
2023-03-10T15:28:14.865Z,9.95
2023-03-10T15:30:42.569Z,8.18
2023-03-10T15:33:11.423Z,8.93
2023-03-10T15:35:57.593Z,12.25
2023-03-10T15:38:25.081Z,11.60
2023-03-10T15:40:52.910Z,10.88
2023-03-10T15:43:20.528Z,13.07
2023-03-10T15:45:49.774Z,12.27
2023-03-10T15:48:17.457Z,12.80
2023-03-10T15:50:48.044Z,47.40
2023-03-10T15:53:15.467Z,12.48
2023-03-10T15:55:42.881Z,16.27
2023-03-10T15:58:10.912Z,12.52
2023-03-10T16:00:42.520Z,11.60
2023-03-10T16:03:09.897Z,13.25
2023-03-10T16:05:39.447Z,10.85
2023-03-10T16:08:06.852Z,10.60
2023-03-10T16:10:35.224Z,13.57
2023-03-10T16:13:05.207Z,11.43
2023-03-10T16:15:32.537Z,11.32
2023-03-10T16:18:02.462Z,13.07
2023-03-10T16:20:29.776Z,10.40
2023-03-10T16:22:57.101Z,12.88
2023-03-10T16:25:24.719Z,10.60
2023-03-10T16:27:52.168Z,10.13
2023-03-10T16:30:20.528Z,9.15
2023-03-10T16:32:48.758Z,9.23
2023-03-10T16:35:18.913Z,7.97
2023-03-10T16:37:46.258Z,9.35
2023-03-10T16:40:13.897Z,9.75
2023-03-10T16:42:45.582Z,8.48
2023-03-10T16:45:18.513Z,14.30
2023-03-10T16:47:48.885Z,10.20
2023-03-10T16:50:16.304Z,9.38
2023-03-10T16:52:43.781Z,8.15
2023-03-10T16:55:17.215Z,9.35
2023-03-10T16:57:50.871Z,14.00
2023-03-10T17:00:25.374Z,13.35
2023-03-10T17:05:44.992Z,11.20
2023-03-10T17:08:12.681Z,12.82
2023-03-10T17:10:48.850Z,10.20
2023-03-10T17:13:21.867Z,10.68
2023-03-10T17:15:49.182Z,9.00
2023-03-10T17:18:19.533Z,8.80
2023-03-10T17:20:46.967Z,9.40
2023-03-10T17:23:16.980Z,6.88
2023-03-10T17:25:44.937Z,6.78
2023-03-10T17:28:15.405Z,6.97
2023-03-10T17:31:05.221Z,5.32
2023-03-10T17:33:33.178Z,5.60
2023-03-10T17:36:08.231Z,6.43
2023-03-10T17:38:52.884Z,7.40
2023-03-10T17:41:22.763Z,6.60
2023-03-10T17:43:50.266Z,10.30
2023-03-10T17:56:31.895Z,8.05
2023-03-10T18:01:36.567Z,7.90
2023-03-10T18:04:42.997Z,9.65
2023-03-10T18:07:13.214Z,7.63
2023-03-10T18:09:59.136Z,7.18
2023-03-10T18:13:02.106Z,7.82
2023-03-10T20:00:22.118Z,23.70
2023-03-10T20:06:02.287Z,25.20
2023-03-10T20:08:29.708Z,17.80
2023-03-10T20:11:02.226Z,23.30
2023-03-10T20:13:40.046Z,21.55
2023-03-10T20:16:32.794Z,21.33
2023-03-10T20:19:20.682Z,24.43
2023-03-10T20:21:55.685Z,25.25
2023-03-10T20:24:25.453Z,25.30
2023-03-10T21:11:21.676Z,28.17
2023-03-10T21:13:27.745Z,32.28
2023-03-10T21:15:55.251Z,27.98
2023-03-10T21:18:55.780Z,24.77
2023-03-10T21:21:25.370Z,26.52
2023-03-10T21:24:04.922Z,21.58
2023-03-10T21:26:39.469Z,25.23
2023-03-10T21:29:06.841Z,25.85
2023-03-10T21:31:34.309Z,26.90
2023-03-10T21:34:06.770Z,25.65
2023-03-10T21:36:43.097Z,24.35
2023-03-10T21:39:10.473Z,25.02
2023-03-10T21:41:37.956Z,23.23
2023-03-10T21:44:10.015Z,26.50
2023-03-10T21:46:40.213Z,25.40
2023-03-10T21:49:23.256Z,24.55
2023-03-10T21:51:57.015Z,23.85
2023-03-10T21:57:49.334Z,22.70
2023-03-10T22:00:26.274Z,22.95
2023-03-10T22:06:30.264Z,21.10
2023-03-10T22:09:05.491Z,19.00
2023-03-10T22:11:33.166Z,19.25
2023-03-10T22:17:28.624Z,20.45
2023-03-10T22:19:56.073Z,23.77
2023-03-10T22:22:36.911Z,21.23
2023-03-10T22:25:06.619Z,17.23
2023-03-10T22:27:40.076Z,15.90
2023-03-10T22:30:15.109Z,21.40
2023-03-10T22:32:45.280Z,20.73
2023-03-10T22:35:15.341Z,26.25
2023-03-10T22:40:25.581Z,18.38
2023-03-10T22:42:58.994Z,16.08
2023-03-10T22:45:31.699Z,18.33
2023-03-10T22:48:06.909Z,16.38
2023-03-10T22:50:43.624Z,17.67
2023-03-10T22:53:17.143Z,11.85
2023-03-10T22:55:46.626Z,16.73
2023-03-10T22:58:20.474Z,14.38
2023-03-10T23:00:48.480Z,12.68
2023-03-10T23:03:16.000Z,16.70
2023-03-10T23:05:50.690Z,12.35
2023-03-10T23:08:18.347Z,11.85
2023-03-10T23:10:45.759Z,11.65
2023-03-10T23:13:14.609Z,13.25
2023-03-10T23:15:43.141Z,11.38
2023-03-10T23:18:14.138Z,9.48
2023-03-10T23:20:42.954Z,7.95
2023-03-10T23:23:15.874Z,10.25
2023-03-10T23:25:53.659Z,7.50
2023-03-10T23:28:37.095Z,7.65
2023-03-10T23:33:52.387Z,7.82
2023-03-10T23:36:19.825Z,6.68
2023-03-10T23:38:55.446Z,4.45
2023-03-10T23:41:30.848Z,5.40
2023-03-10T23:44:05.833Z,7.95
2023-03-10T23:46:35.625Z,5.93
2023-03-10T23:49:03.037Z,5.75
2023-03-10T23:51:30.971Z,6.95
2023-03-10T23:53:58.238Z,7.18
2023-03-10T23:56:25.663Z,7.80
2023-03-10T23:58:53.103Z,12.35
